100LL.CA
Aviation Fuel Pricing for Canadians
Please upgrade your browser - Tested with IE9, FireFox, Chrome, Safari

Fuel Airports Other Help
Prices Economy Info List METAR/TAF Kneeboard Help

Reference Airport: RANKIN INLET, NU
N 62 48 38  W 092 06 53
Provinces to show:

CYRT RANKIN INLET, NU
WEATHER
METARCYRT 221400Z 25012KT 15SM BKN120 10/04 A2985 RMK AC7 SLP114
TAFTAF CYRT 221140Z 2212/2224 26008KT P6SM BKN080 TEMPO 2212/2222 SCT080 BECMG 2214/2216 27015KT FM222200 33015KT P6SM SCT100 RMK NXT FCST BY 221800Z
OTHER SITES

FlightAware

FltPlan

Google Maps

SkyVector
FUEL
FBO 100LL
member
100LL
public
JETA MOGAS
Opr (2018-03-28)1.8201.489
Canada Flight Supplement - CYRT
(opens in new tab/window)


Please Send Updates!

Desktop Version ]  [ Mobile Version ]  [ Disclaimer ]